sensor_id;sensor_type;location;lat;lon;timestamp;pressure;altitude;pressure_sealevel;temperature;humidity
46722;BME280;32455;43.430;23.136;2023-03-26T00:01:26;97613.91;;;9.15;100.00
46722;BME280;32455;43.430;23.136;2023-03-26T00:04:11;97630.66;;;8.80;100.00
46722;BME280;32455;43.430;23.136;2023-03-26T00:06:57;97629.00;;;8.79;100.00
46722;BME280;32455;43.430;23.136;2023-03-26T00:09:42;97645.81;;;8.86;100.00
46722;BME280;32455;43.430;23.136;2023-03-26T00:12:28;97662.13;;;8.85;100.00
46722;BME280;32455;43.430;23.136;2023-03-26T00:15:12;97625.69;;;8.65;100.00
46722;BME280;32455;43.430;23.136;2023-03-26T00:17:58;97638.53;;;8.75;100.00
46722;BME280;32455;43.430;23.136;2023-03-26T00:20:45;97656.19;;;8.83;100.00
46722;BME280;32455;43.430;23.136;2023-03-26T00:23:31;97635.03;;;8.74;100.00
46722;BME280;32455;43.430;23.136;2023-03-26T00:26:18;97660.63;;;8.89;100.00
46722;BME280;32455;43.430;23.136;2023-03-26T00:29:04;97666.94;;;8.94;100.00
46722;BME280;32455;43.430;23.136;2023-03-26T00:31:50;97665.53;;;8.92;100.00
46722;BME280;32455;43.430;23.136;2023-03-26T00:34:36;97666.88;;;9.01;100.00
46722;BME280;32455;43.430;23.136;2023-03-26T00:37:22;97666.41;;;9.22;100.00
46722;BME280;32455;43.430;23.136;2023-03-26T00:40:10;97676.88;;;9.24;100.00
46722;BME280;32455;43.430;23.136;2023-03-26T00:42:56;97685.91;;;9.30;100.00
46722;BME280;32455;43.430;23.136;2023-03-26T00:45:41;97688.44;;;9.54;100.00
46722;BME280;32455;43.430;23.136;2023-03-26T00:48:27;97672.94;;;9.57;100.00
46722;BME280;32455;43.430;23.136;2023-03-26T00:51:15;97684.38;;;9.94;100.00
46722;BME280;32455;43.430;23.136;2023-03-26T00:54:00;97689.34;;;9.78;100.00
46722;BME280;32455;43.430;23.136;2023-03-26T00:56:46;97687.28;;;10.04;100.00
46722;BME280;32455;43.430;23.136;2023-03-26T00:59:32;97675.75;;;10.03;100.00
46722;BME280;32455;43.430;23.136;2023-03-26T01:02:19;97699.31;;;10.13;100.00
46722;BME280;32455;43.430;23.136;2023-03-26T01:08:26;97714.25;;;10.09;100.00
46722;BME280;32455;43.430;23.136;2023-03-26T01:11:21;97703.63;;;10.02;100.00
46722;BME280;32455;43.430;23.136;2023-03-26T01:14:22;97703.59;;;9.91;100.00
46722;BME280;32455;43.430;23.136;2023-03-26T01:17:08;97701.66;;;9.98;100.00
46722;BME280;32455;43.430;23.136;2023-03-26T01:20:05;97708.03;;;9.97;100.00
46722;BME280;32455;43.430;23.136;2023-03-26T01:23:01;97726.75;;;10.03;100.00
46722;BME280;32455;43.430;23.136;2023-03-26T01:25:54;97731.00;;;9.81;100.00
46722;BME280;32455;43.430;23.136;2023-03-26T01:28:44;97709.44;;;9.58;100.00
46722;BME280;32455;43.430;23.136;2023-03-26T01:31:36;97736.00;;;9.77;100.00
46722;BME280;32455;43.430;23.136;2023-03-26T01:34:34;97754.88;;;9.71;100.00
46722;BME280;32455;43.430;23.136;2023-03-26T01:44:04;97750.78;;;10.10;100.00
46722;BME280;32455;43.430;23.136;2023-03-26T01:46:51;97746.78;;;9.89;100.00
46722;BME280;32455;43.430;23.136;2023-03-26T01:49:37;97733.38;;;9.89;100.00
46722;BME280;32455;43.430;23.136;2023-03-26T01:52:22;97728.69;;;9.96;100.00
46722;BME280;32455;43.430;23.136;2023-03-26T01:55:10;97747.00;;;9.88;100.00
46722;BME280;32455;43.430;23.136;2023-03-26T01:58:04;97726.59;;;9.87;100.00
46722;BME280;32455;43.430;23.136;2023-03-26T02:04:23;97725.31;;;9.89;100.00
46722;BME280;32455;43.430;23.136;2023-03-26T02:07:46;97722.03;;;9.87;100.00
46722;BME280;32455;43.430;23.136;2023-03-26T02:10:41;97730.16;;;9.81;100.00
46722;BME280;32455;43.430;23.136;2023-03-26T02:13:28;97724.34;;;9.84;100.00
46722;BME280;32455;43.430;23.136;2023-03-26T02:16:15;97727.06;;;9.95;100.00
46722;BME280;32455;43.430;23.136;2023-03-26T02:19:01;97723.66;;;9.88;100.00
46722;BME280;32455;43.430;23.136;2023-03-26T02:21:48;97735.50;;;9.99;100.00
46722;BME280;32455;43.430;23.136;2023-03-26T02:24:35;97729.25;;;9.87;100.00
46722;BME280;32455;43.430;23.136;2023-03-26T02:27:21;97717.03;;;9.91;100.00
46722;BME280;32455;43.430;23.136;2023-03-26T02:30:08;97732.84;;;10.11;100.00
46722;BME280;32455;43.430;23.136;2023-03-26T02:32:53;97702.88;;;9.84;100.00
46722;BME280;32455;43.430;23.136;2023-03-26T02:35:39;97711.41;;;9.92;100.00
46722;BME280;32455;43.430;23.136;2023-03-26T02:38:25;97734.72;;;9.80;100.00
46722;BME280;32455;43.430;23.136;2023-03-26T02:41:10;97738.63;;;9.66;100.00
46722;BME280;32455;43.430;23.136;2023-03-26T02:43:56;97729.66;;;9.72;100.00
46722;BME280;32455;43.430;23.136;2023-03-26T02:46:41;97729.63;;;9.60;100.00
46722;BME280;32455;43.430;23.136;2023-03-26T02:49:26;97741.72;;;9.51;100.00
46722;BME280;32455;43.430;23.136;2023-03-26T02:52:12;97740.63;;;9.70;100.00
46722;BME280;32455;43.430;23.136;2023-03-26T02:55:01;97738.94;;;9.58;100.00
46722;BME280;32455;43.430;23.136;2023-03-26T02:57:46;97755.28;;;9.56;100.00
46722;BME280;32455;43.430;23.136;2023-03-26T03:00:33;97754.47;;;9.56;100.00
46722;BME280;32455;43.430;23.136;2023-03-26T03:03:18;97752.22;;;9.83;99.12
46722;BME280;32455;43.430;23.136;2023-03-26T03:06:08;97735.38;;;9.64;99.20
46722;BME280;32455;43.430;23.136;2023-03-26T03:08:53;97768.75;;;9.68;96.19
46722;BME280;32455;43.430;23.136;2023-03-26T03:11:40;97745.69;;;9.78;97.98
46722;BME280;32455;43.430;23.136;2023-03-26T03:14:25;97759.72;;;9.62;96.22
46722;BME280;32455;43.430;23.136;2023-03-26T03:17:11;97754.88;;;9.71;98.91
46722;BME280;32455;43.430;23.136;2023-03-26T03:19:57;97757.41;;;9.66;98.88
46722;BME280;32455;43.430;23.136;2023-03-26T03:22:43;97775.09;;;9.55;98.01
46722;BME280;32455;43.430;23.136;2023-03-26T03:25:28;97772.19;;;9.57;100.00
46722;BME280;32455;43.430;23.136;2023-03-26T03:28:14;97722.19;;;9.14;99.90
46722;BME280;32455;43.430;23.136;2023-03-26T03:31:02;97768.78;;;9.31;98.94
46722;BME280;32455;43.430;23.136;2023-03-26T03:33:48;97756.63;;;9.47;98.39
46722;BME280;32455;43.430;23.136;2023-03-26T03:36:34;97750.19;;;9.18;95.80
46722;BME280;32455;43.430;23.136;2023-03-26T03:39:22;97755.16;;;9.14;98.66
46722;BME280;32455;43.430;23.136;2023-03-26T03:42:07;97773.25;;;9.19;95.97
46722;BME280;32455;43.430;23.136;2023-03-26T03:44:53;97789.31;;;9.37;96.63
46722;BME280;32455;43.430;23.136;2023-03-26T03:47:38;97763.88;;;9.10;96.93
46722;BME280;32455;43.430;23.136;2023-03-26T03:50:24;97756.03;;;8.90;99.32
46722;BME280;32455;43.430;23.136;2023-03-26T03:53:09;97774.22;;;9.06;94.67
46722;BME280;32455;43.430;23.136;2023-03-26T03:55:59;97769.56;;;8.95;97.15
46722;BME280;32455;43.430;23.136;2023-03-26T03:58:45;97760.19;;;8.86;95.59
46722;BME280;32455;43.430;23.136;2023-03-26T04:01:31;97785.75;;;9.07;94.26
46722;BME280;32455;43.430;23.136;2023-03-26T04:04:16;97787.38;;;9.08;95.48
46722;BME280;32455;43.430;23.136;2023-03-26T04:07:03;97773.00;;;8.84;96.65
46722;BME280;32455;43.430;23.136;2023-03-26T04:09:49;97784.81;;;8.76;95.92
46722;BME280;32455;43.430;23.136;2023-03-26T04:12:35;97785.59;;;9.01;96.04
46722;BME280;32455;43.430;23.136;2023-03-26T04:15:20;97784.53;;;8.84;95.57
46722;BME280;32455;43.430;23.136;2023-03-26T04:18:05;97781.09;;;8.77;97.49
46722;BME280;32455;43.430;23.136;2023-03-26T04:20:53;97786.19;;;8.60;97.72
46722;BME280;32455;43.430;23.136;2023-03-26T04:23:41;97783.84;;;8.45;100.00
46722;BME280;32455;43.430;23.136;2023-03-26T04:26:26;97762.47;;;8.39;100.00
46722;BME280;32455;43.430;23.136;2023-03-26T04:29:15;97808.81;;;8.39;100.00
46722;BME280;32455;43.430;23.136;2023-03-26T04:32:01;97801.25;;;8.61;94.60
46722;BME280;32455;43.430;23.136;2023-03-26T04:34:51;97830.25;;;9.08;90.85
46722;BME280;32455;43.430;23.136;2023-03-26T04:37:38;97799.28;;;8.93;91.81
46722;BME280;32455;43.430;23.136;2023-03-26T04:40:24;97817.19;;;8.99;91.32
46722;BME280;32455;43.430;23.136;2023-03-26T04:43:14;97816.88;;;9.08;87.26
46722;BME280;32455;43.430;23.136;2023-03-26T04:46:02;97802.25;;;9.03;90.30
46722;BME280;32455;43.430;23.136;2023-03-26T04:48:52;97815.19;;;9.32;89.92
46722;BME280;32455;43.430;23.136;2023-03-26T04:51:38;97815.75;;;9.15;87.75
46722;BME280;32455;43.430;23.136;2023-03-26T04:54:26;97827.75;;;9.13;89.27
46722;BME280;32455;43.430;23.136;2023-03-26T04:57:41;97837.44;;;9.14;90.63
46722;BME280;32455;43.430;23.136;2023-03-26T05:00:30;97836.53;;;9.01;90.69
46722;BME280;32455;43.430;23.136;2023-03-26T05:03:15;97838.63;;;9.18;91.43
46722;BME280;32455;43.430;23.136;2023-03-26T05:06:01;97825.81;;;9.01;92.19
46722;BME280;32455;43.430;23.136;2023-03-26T05:08:47;97852.56;;;9.08;91.35
46722;BME280;32455;43.430;23.136;2023-03-26T05:11:32;97830.97;;;9.21;90.49
46722;BME280;32455;43.430;23.136;2023-03-26T05:14:18;97855.41;;;9.32;90.98
46722;BME280;32455;43.430;23.136;2023-03-26T05:17:05;97837.25;;;9.34;91.14
46722;BME280;32455;43.430;23.136;2023-03-26T05:19:50;97845.81;;;9.42;91.54
46722;BME280;32455;43.430;23.136;2023-03-26T05:22:36;97833.34;;;9.48;90.78
46722;BME280;32455;43.430;23.136;2023-03-26T05:25:22;97834.91;;;9.37;88.94
46722;BME280;32455;43.430;23.136;2023-03-26T05:28:08;97854.97;;;9.53;92.08
46722;BME280;32455;43.430;23.136;2023-03-26T05:30:54;97843.31;;;9.59;88.90
46722;BME280;32455;43.430;23.136;2023-03-26T05:33:39;97840.56;;;9.66;89.49
46722;BME280;32455;43.430;23.136;2023-03-26T05:36:25;97827.16;;;9.66;91.35
46722;BME280;32455;43.430;23.136;2023-03-26T05:39:11;97849.41;;;9.85;89.39
46722;BME280;32455;43.430;23.136;2023-03-26T05:41:58;97834.22;;;9.78;90.04
46722;BME280;32455;43.430;23.136;2023-03-26T05:44:45;97848.09;;;9.94;86.27
46722;BME280;32455;43.430;23.136;2023-03-26T05:47:31;97827.94;;;10.03;87.90
46722;BME280;32455;43.430;23.136;2023-03-26T05:50:17;97830.97;;;10.07;87.77
46722;BME280;32455;43.430;23.136;2023-03-26T05:53:03;97847.59;;;10.15;85.07
46722;BME280;32455;43.430;23.136;2023-03-26T05:55:48;97843.50;;;10.43;83.90
46722;BME280;32455;43.430;23.136;2023-03-26T05:58:41;97854.25;;;10.43;82.23
46722;BME280;32455;43.430;23.136;2023-03-26T06:01:27;97839.38;;;10.40;82.46
46722;BME280;32455;43.430;23.136;2023-03-26T06:04:13;97855.13;;;10.67;83.72
46722;BME280;32455;43.430;23.136;2023-03-26T06:07:01;97833.16;;;10.58;81.25
46722;BME280;32455;43.430;23.136;2023-03-26T06:09:47;97848.22;;;10.59;82.13
46722;BME280;32455;43.430;23.136;2023-03-26T06:12:33;97851.63;;;10.78;77.95
46722;BME280;32455;43.430;23.136;2023-03-26T06:15:18;97832.34;;;11.04;75.98
46722;BME280;32455;43.430;23.136;2023-03-26T06:18:03;97832.72;;;11.20;75.64
46722;BME280;32455;43.430;23.136;2023-03-26T06:20:49;97842.84;;;11.53;74.85
46722;BME280;32455;43.430;23.136;2023-03-26T06:23:35;97843.41;;;11.55;67.43
46722;BME280;32455;43.430;23.136;2023-03-26T06:26:20;97852.03;;;11.81;63.76
46722;BME280;32455;43.430;23.136;2023-03-26T06:29:06;97852.66;;;12.11;64.46
46722;BME280;32455;43.430;23.136;2023-03-26T06:31:51;97837.34;;;12.28;62.35
46722;BME280;32455;43.430;23.136;2023-03-26T06:34:36;97836.69;;;12.21;64.61
46722;BME280;32455;43.430;23.136;2023-03-26T06:37:21;97844.00;;;12.09;68.19
46722;BME280;32455;43.430;23.136;2023-03-26T06:40:07;97847.53;;;12.38;64.39
46722;BME280;32455;43.430;23.136;2023-03-26T06:42:52;97842.69;;;12.40;62.66
46722;BME280;32455;43.430;23.136;2023-03-26T06:45:39;97854.81;;;12.71;60.78
46722;BME280;32455;43.430;23.136;2023-03-26T06:48:25;97862.28;;;12.81;57.20
46722;BME280;32455;43.430;23.136;2023-03-26T06:51:11;97860.06;;;12.78;56.30
46722;BME280;32455;43.430;23.136;2023-03-26T06:53:57;97856.63;;;12.99;54.79
46722;BME280;32455;43.430;23.136;2023-03-26T06:56:42;97850.00;;;13.07;58.62
46722;BME280;32455;43.430;23.136;2023-03-26T06:59:28;97855.78;;;13.49;58.40
46722;BME280;32455;43.430;23.136;2023-03-26T07:02:13;97853.09;;;13.49;55.81
46722;BME280;32455;43.430;23.136;2023-03-26T07:04:58;97841.31;;;13.39;57.53
46722;BME280;32455;43.430;23.136;2023-03-26T07:07:44;97856.81;;;13.48;54.91
46722;BME280;32455;43.430;23.136;2023-03-26T07:10:29;97859.06;;;13.35;54.19
46722;BME280;32455;43.430;23.136;2023-03-26T07:13:14;97848.25;;;13.18;51.33
46722;BME280;32455;43.430;23.136;2023-03-26T07:16:00;97865.47;;;13.28;52.83
46722;BME280;32455;43.430;23.136;2023-03-26T07:18:45;97854.50;;;13.57;53.54
46722;BME280;32455;43.430;23.136;2023-03-26T07:21:31;97867.34;;;13.67;54.86
46722;BME280;32455;43.430;23.136;2023-03-26T07:24:16;97839.53;;;13.66;53.88
46722;BME280;32455;43.430;23.136;2023-03-26T07:28:10;97879.16;;;13.83;53.14
46722;BME280;32455;43.430;23.136;2023-03-26T07:33:48;97870.44;;;13.75;50.24
46722;BME280;32455;43.430;23.136;2023-03-26T07:36:55;97868.53;;;13.54;51.69
46722;BME280;32455;43.430;23.136;2023-03-26T07:39:45;97882.88;;;13.98;50.51
46722;BME280;32455;43.430;23.136;2023-03-26T07:42:42;97883.63;;;13.72;49.56
46722;BME280;32455;43.430;23.136;2023-03-26T07:45:39;97879.31;;;13.54;51.69
46722;BME280;32455;43.430;23.136;2023-03-26T07:48:28;97878.91;;;14.06;52.66
46722;BME280;32455;43.430;23.136;2023-03-26T07:51:16;97871.69;;;13.68;47.85
46722;BME280;32455;43.430;23.136;2023-03-26T07:54:02;97868.34;;;13.83;47.53
46722;BME280;32455;43.430;23.136;2023-03-26T07:56:52;97866.59;;;14.15;52.79
46722;BME280;32455;43.430;23.136;2023-03-26T08:02:41;97870.97;;;14.21;50.69
46722;BME280;32455;43.430;23.136;2023-03-26T08:05:33;97854.78;;;13.99;48.15
46722;BME280;32455;43.430;23.136;2023-03-26T08:11:55;97877.16;;;14.66;49.47
46722;BME280;32455;43.430;23.136;2023-03-26T08:21:13;97877.50;;;14.74;47.04
46722;BME280;32455;43.430;23.136;2023-03-26T08:24:21;97882.06;;;14.47;49.13
46722;BME280;32455;43.430;23.136;2023-03-26T08:27:16;97864.91;;;14.58;46.13
46722;BME280;32455;43.430;23.136;2023-03-26T08:30:22;97864.91;;;14.58;45.62
46722;BME280;32455;43.430;23.136;2023-03-26T08:33:12;97854.66;;;14.38;45.80
46722;BME280;32455;43.430;23.136;2023-03-26T08:36:00;97869.84;;;14.66;45.83
46722;BME280;32455;43.430;23.136;2023-03-26T08:38:45;97869.03;;;14.98;46.69
46722;BME280;32455;43.430;23.136;2023-03-26T08:45:01;97867.16;;;14.66;44.47
46722;BME280;32455;43.430;23.136;2023-03-26T09:03:57;97848.50;;;15.39;41.92
46722;BME280;32455;43.430;23.136;2023-03-26T09:13:29;97858.31;;;15.08;41.16
46722;BME280;32455;43.430;23.136;2023-03-26T09:32:00;97838.78;;;15.48;39.86
46722;BME280;32455;43.430;23.136;2023-03-26T09:47:39;97822.72;;;15.84;43.25
46722;BME280;32455;43.430;23.136;2023-03-26T10:12:32;97800.03;;;15.95;41.50
46722;BME280;32455;43.430;23.136;2023-03-26T10:15:08;97796.78;;;15.98;40.79
46722;BME280;32455;43.430;23.136;2023-03-26T10:27:50;97779.78;;;16.23;42.49
46722;BME280;32455;43.430;23.136;2023-03-26T10:30:53;97770.03;;;16.33;38.97
46722;BME280;32455;43.430;23.136;2023-03-26T10:45:50;97771.59;;;16.03;41.02
46722;BME280;32455;43.430;23.136;2023-03-26T10:51:45;97749.69;;;16.30;41.11
46722;BME280;32455;43.430;23.136;2023-03-26T10:58:01;97751.84;;;16.64;40.61
46722;BME280;32455;43.430;23.136;2023-03-26T11:01:01;97749.16;;;16.59;41.94
46722;BME280;32455;43.430;23.136;2023-03-26T11:03:53;97743.41;;;16.14;42.13
46722;BME280;32455;43.430;23.136;2023-03-26T11:12:47;97721.97;;;16.99;42.81
46722;BME280;32455;43.430;23.136;2023-03-26T11:15:44;97726.38;;;16.34;39.74
46722;BME280;32455;43.430;23.136;2023-03-26T11:18:47;97717.69;;;16.58;39.82
46722;BME280;32455;43.430;23.136;2023-03-26T11:21:58;97719.31;;;16.89;38.23
46722;BME280;32455;43.430;23.136;2023-03-26T11:31:51;97689.78;;;17.52;37.22
46722;BME280;32455;43.430;23.136;2023-03-26T11:37:49;97681.47;;;17.23;41.22
46722;BME280;32455;43.430;23.136;2023-03-26T11:40:40;97668.75;;;17.14;38.58
46722;BME280;32455;43.430;23.136;2023-03-26T11:43:33;97658.84;;;17.38;38.28
46722;BME280;32455;43.430;23.136;2023-03-26T11:46:22;97683.09;;;17.24;37.75
46722;BME280;32455;43.430;23.136;2023-03-26T11:49:10;97678.63;;;16.84;36.99
46722;BME280;32455;43.430;23.136;2023-03-26T11:51:56;97646.75;;;17.15;38.21
46722;BME280;32455;43.430;23.136;2023-03-26T11:54:43;97674.72;;;17.16;37.98
46722;BME280;32455;43.430;23.136;2023-03-26T11:57:33;97668.59;;;17.49;35.69
46722;BME280;32455;43.430;23.136;2023-03-26T12:00:21;97656.28;;;17.08;36.32
46722;BME280;32455;43.430;23.136;2023-03-26T12:03:13;97653.84;;;17.06;35.91
46722;BME280;32455;43.430;23.136;2023-03-26T12:05:59;97661.09;;;17.21;37.20
46722;BME280;32455;43.430;23.136;2023-03-26T12:08:47;97641.03;;;17.17;37.12
46722;BME280;32455;43.430;23.136;2023-03-26T12:11:33;97615.50;;;17.23;37.33
46722;BME280;32455;43.430;23.136;2023-03-26T12:14:26;97645.53;;;17.42;35.70
46722;BME280;32455;43.430;23.136;2023-03-26T12:17:24;97630.69;;;17.68;35.28
46722;BME280;32455;43.430;23.136;2023-03-26T12:26:37;97626.91;;;17.20;34.06
46722;BME280;32455;43.430;23.136;2023-03-26T12:29:25;97604.09;;;17.21;35.26
46722;BME280;32455;43.430;23.136;2023-03-26T12:32:13;97601.03;;;17.33;37.08
46722;BME280;32455;43.430;23.136;2023-03-26T12:35:09;97615.16;;;17.35;34.26
46722;BME280;32455;43.430;23.136;2023-03-26T12:41:09;97594.56;;;17.28;34.69
46722;BME280;32455;43.430;23.136;2023-03-26T12:43:54;97602.59;;;17.49;33.64
46722;BME280;32455;43.430;23.136;2023-03-26T12:46:39;97589.88;;;17.39;33.68
46722;BME280;32455;43.430;23.136;2023-03-26T12:49:26;97587.28;;;17.63;33.62
46722;BME280;32455;43.430;23.136;2023-03-26T12:58:36;97587.59;;;17.57;33.25
46722;BME280;32455;43.430;23.136;2023-03-26T13:01:52;97590.63;;;17.50;33.47
46722;BME280;32455;43.430;23.136;2023-03-26T13:05:01;97583.50;;;17.98;33.52
46722;BME280;32455;43.430;23.136;2023-03-26T13:17:49;97543.09;;;17.87;33.30
46722;BME280;32455;43.430;23.136;2023-03-26T13:20:53;97556.16;;;17.85;29.95
46722;BME280;32455;43.430;23.136;2023-03-26T13:30:00;97550.34;;;17.96;32.99
46722;BME280;32455;43.430;23.136;2023-03-26T13:33:11;97530.59;;;18.15;32.32
46722;BME280;32455;43.430;23.136;2023-03-26T13:39:29;97518.28;;;18.22;31.94
46722;BME280;32455;43.430;23.136;2023-03-26T13:52:24;97509.63;;;18.68;31.75
46722;BME280;32455;43.430;23.136;2023-03-26T13:55:24;97514.50;;;17.94;31.11
46722;BME280;32455;43.430;23.136;2023-03-26T14:09:57;97497.03;;;18.00;30.29
46722;BME280;32455;43.430;23.136;2023-03-26T14:13:34;97515.47;;;18.57;29.79
46722;BME280;32455;43.430;23.136;2023-03-26T14:16:21;97505.00;;;18.21;30.85
46722;BME280;32455;43.430;23.136;2023-03-26T14:37:07;97507.97;;;17.95;29.94
46722;BME280;32455;43.430;23.136;2023-03-26T14:43:39;97495.66;;;18.03;30.05
46722;BME280;32455;43.430;23.136;2023-03-26T14:52:45;97483.78;;;17.94;30.33
46722;BME280;32455;43.430;23.136;2023-03-26T15:02:01;97491.06;;;17.64;30.02
46722;BME280;32455;43.430;23.136;2023-03-26T15:05:07;97482.97;;;17.93;30.32
46722;BME280;32455;43.430;23.136;2023-03-26T15:27:30;97486.88;;;17.48;35.28
46722;BME280;32455;43.430;23.136;2023-03-26T15:34:08;97486.00;;;17.58;33.18
46722;BME280;32455;43.430;23.136;2023-03-26T15:43:14;97486.22;;;16.83;33.91
46722;BME280;32455;43.430;23.136;2023-03-26T15:49:21;97473.44;;;16.88;34.60
46722;BME280;32455;43.430;23.136;2023-03-26T15:55:32;97466.63;;;16.36;40.75
46722;BME280;32455;43.430;23.136;2023-03-26T15:58:25;97487.72;;;16.49;39.35
46722;BME280;32455;43.430;23.136;2023-03-26T16:10:20;97485.94;;;14.92;49.38
46722;BME280;32455;43.430;23.136;2023-03-26T16:13:38;97481.22;;;14.04;51.67
46722;BME280;32455;43.430;23.136;2023-03-26T16:16:51;97443.38;;;13.99;52.53
46722;BME280;32455;43.430;23.136;2023-03-26T16:23:02;97480.06;;;13.52;52.08
46722;BME280;32455;43.430;23.136;2023-03-26T16:32:24;97472.75;;;13.48;55.93
46722;BME280;32455;43.430;23.136;2023-03-26T16:38:08;97477.31;;;12.39;55.99
46722;BME280;32455;43.430;23.136;2023-03-26T16:40:59;97474.56;;;12.12;57.52
46722;BME280;32455;43.430;23.136;2023-03-26T16:44:19;97482.06;;;12.32;58.91
46722;BME280;32455;43.430;23.136;2023-03-26T16:53:22;97469.47;;;11.77;59.61
46722;BME280;32455;43.430;23.136;2023-03-26T17:02:51;97463.78;;;11.06;63.49
46722;BME280;32455;43.430;23.136;2023-03-26T17:06:03;97453.88;;;10.78;63.04
46722;BME280;32455;43.430;23.136;2023-03-26T17:11:48;97473.63;;;10.55;61.63
46722;BME280;32455;43.430;23.136;2023-03-26T17:16:01;97473.56;;;10.38;64.95
46722;BME280;32455;43.430;23.136;2023-03-26T17:18:29;97485.13;;;10.39;65.22
46722;BME280;32455;43.430;23.136;2023-03-26T17:27:22;97469.53;;;9.89;65.44
46722;BME280;32455;43.430;23.136;2023-03-26T17:33:37;97460.66;;;10.00;66.98
46722;BME280;32455;43.430;23.136;2023-03-26T17:36:39;97467.34;;;9.74;68.38
46722;BME280;32455;43.430;23.136;2023-03-26T17:43:06;97464.88;;;9.37;66.66
46722;BME280;32455;43.430;23.136;2023-03-26T17:45:53;97452.66;;;9.65;67.64
46722;BME280;32455;43.430;23.136;2023-03-26T17:48:39;97466.41;;;9.33;68.57
46722;BME280;32455;43.430;23.136;2023-03-26T17:52:03;97469.44;;;9.25;69.33
46722;BME280;32455;43.430;23.136;2023-03-26T17:54:56;97457.13;;;8.94;69.24
46722;BME280;32455;43.430;23.136;2023-03-26T17:57:47;97464.41;;;9.17;71.64
46722;BME280;32455;43.430;23.136;2023-03-26T18:00:44;97457.81;;;9.43;68.75
46722;BME280;32455;43.430;23.136;2023-03-26T18:03:45;97440.63;;;9.09;70.04
46722;BME280;32455;43.430;23.136;2023-03-26T18:19:20;97444.03;;;10.15;62.36
46722;BME280;32455;43.430;23.136;2023-03-26T18:22:17;97431.31;;;10.34;60.83
46722;BME280;32455;43.430;23.136;2023-03-26T18:25:04;97425.66;;;10.47;58.28
46722;BME280;32455;43.430;23.136;2023-03-26T18:27:49;97419.00;;;10.49;59.14
46722;BME280;32455;43.430;23.136;2023-03-26T18:30:45;97428.00;;;10.43;58.37
46722;BME280;32455;43.430;23.136;2023-03-26T18:33:42;97415.88;;;10.86;56.60
46722;BME280;32455;43.430;23.136;2023-03-26T18:36:29;97417.34;;;11.11;54.40
46722;BME280;32455;43.430;23.136;2023-03-26T18:39:14;97406.94;;;10.97;55.87
46722;BME280;32455;43.430;23.136;2023-03-26T18:42:05;97406.84;;;10.92;56.03
46722;BME280;32455;43.430;23.136;2023-03-26T18:44:52;97395.25;;;10.92;54.73
46722;BME280;32455;43.430;23.136;2023-03-26T18:47:38;97389.06;;;11.08;52.77
46722;BME280;32455;43.430;23.136;2023-03-26T18:50:39;97394.50;;;11.47;51.84
46722;BME280;32455;43.430;23.136;2023-03-26T18:53:28;97379.69;;;11.44;51.98
46722;BME280;32455;43.430;23.136;2023-03-26T18:56:28;97388.94;;;11.53;52.08
46722;BME280;32455;43.430;23.136;2023-03-26T18:59:28;97400.59;;;11.59;51.61
46722;BME280;32455;43.430;23.136;2023-03-26T19:02:16;97385.66;;;11.13;54.91
46722;BME280;32455;43.430;23.136;2023-03-26T19:05:03;97367.91;;;11.12;53.94
46722;BME280;32455;43.430;23.136;2023-03-26T19:07:48;97378.00;;;11.04;54.51
46722;BME280;32455;43.430;23.136;2023-03-26T19:10:35;97378.16;;;10.98;54.87
46722;BME280;32455;43.430;23.136;2023-03-26T19:13:21;97361.47;;;10.62;56.69
46722;BME280;32455;43.430;23.136;2023-03-26T19:18:58;97376.13;;;10.14;60.36
46722;BME280;32455;43.430;23.136;2023-03-26T19:21:45;97362.69;;;10.14;60.39
46722;BME280;32455;43.430;23.136;2023-03-26T19:24:33;97359.53;;;10.17;57.67
46722;BME280;32455;43.430;23.136;2023-03-26T19:27:18;97366.88;;;10.22;58.40
46722;BME280;32455;43.430;23.136;2023-03-26T19:30:04;97354.13;;;10.41;56.58
46722;BME280;32455;43.430;23.136;2023-03-26T19:32:53;97352.41;;;10.51;56.12
46722;BME280;32455;43.430;23.136;2023-03-26T19:35:42;97356.19;;;10.67;56.86
46722;BME280;32455;43.430;23.136;2023-03-26T19:38:37;97356.75;;;10.69;59.35
46722;BME280;32455;43.430;23.136;2023-03-26T19:41:38;97355.84;;;10.64;59.56
46722;BME280;32455;43.430;23.136;2023-03-26T19:44:28;97355.97;;;10.40;60.53
46722;BME280;32455;43.430;23.136;2023-03-26T19:47:19;97347.03;;;10.23;61.39
46722;BME280;32455;43.430;23.136;2023-03-26T19:50:25;97341.91;;;9.52;65.34
46722;BME280;32455;43.430;23.136;2023-03-26T19:53:20;97340.66;;;8.96;69.08
46722;BME280;32455;43.430;23.136;2023-03-26T19:56:11;97338.06;;;8.66;72.11
46722;BME280;32455;43.430;23.136;2023-03-26T19:58:58;97308.44;;;8.08;72.47
46722;BME280;32455;43.430;23.136;2023-03-26T20:01:44;97307.44;;;7.90;75.55
46722;BME280;32455;43.430;23.136;2023-03-26T20:04:29;97322.81;;;7.95;73.87
46722;BME280;32455;43.430;23.136;2023-03-26T20:07:21;97323.16;;;8.28;73.32
46722;BME280;32455;43.430;23.136;2023-03-26T20:10:11;97326.41;;;8.31;71.92
46722;BME280;32455;43.430;23.136;2023-03-26T20:12:56;97319.06;;;8.56;68.64
46722;BME280;32455;43.430;23.136;2023-03-26T20:15:52;97307.19;;;8.64;67.51
46722;BME280;32455;43.430;23.136;2023-03-26T20:18:41;97303.84;;;8.57;67.13
46722;BME280;32455;43.430;23.136;2023-03-26T20:21:28;97330.59;;;8.68;66.20
46722;BME280;32455;43.430;23.136;2023-03-26T20:24:16;97320.94;;;8.67;68.89
46722;BME280;32455;43.430;23.136;2023-03-26T20:27:01;97314.06;;;8.48;68.91
46722;BME280;32455;43.430;23.136;2023-03-26T20:29:47;97289.03;;;9.01;62.43
46722;BME280;32455;43.430;23.136;2023-03-26T20:32:33;97287.97;;;9.25;62.78
46722;BME280;32455;43.430;23.136;2023-03-26T20:35:22;97282.72;;;9.19;63.21
46722;BME280;32455;43.430;23.136;2023-03-26T20:38:09;97243.28;;;8.91;62.52